Indianapolis, Indiana
Traffic Map
Current Weather Conditions
Indianapolis, Indiana
Overcast
Overcast

Feels Like: -4°
Wind Chill: -4° Ceiling: 21000
Heat Index: Visibility: 10mi
Dew Point: -6° Wind: 8mph
Humidity: 66% Direction: 150° (SSE)
Pressure: 30.06in Gusts: 0mph
Raw Report DataKIND 290054Z 15007KT 10SM FEW180 OVC210 00/M06 A3006 RMK AO2 SLP189 T00001056
Traffic Incident Summary
Active as of:
Severity:
Category:
InformationThere was an issue retrieving the traffic information for this location. Please try a different location or try again shortly.
Advertisements
Track Severe Weather on mobile